createdAt,value
2022-12-25T00:02:20.944Z,10.30
2022-12-25T00:04:48.080Z,10.40
2022-12-25T00:07:15.284Z,10.30
2022-12-25T00:09:42.404Z,10.30
2022-12-25T00:12:09.506Z,9.70
2022-12-25T00:14:36.676Z,10.30
2022-12-25T00:17:03.808Z,10.30
2022-12-25T00:19:30.980Z,10.20
2022-12-25T00:21:58.094Z,10.20
2022-12-25T00:24:25.177Z,10.20
2022-12-25T00:26:52.332Z,10.20
2022-12-25T00:29:19.400Z,10.20
2022-12-25T00:31:46.604Z,10.20
2022-12-25T00:34:14.199Z,10.90
2022-12-25T00:36:42.210Z,10.20
2022-12-25T00:39:09.625Z,10.20
2022-12-25T00:41:55.301Z,10.20
2022-12-25T00:44:23.379Z,10.10
2022-12-25T00:46:50.581Z,10.20
2022-12-25T00:49:17.914Z,10.20
2022-12-25T00:51:44.993Z,10.20
2022-12-25T00:54:12.216Z,10.20
2022-12-25T00:56:40.131Z,10.10
2022-12-25T00:59:07.254Z,10.10
2022-12-25T01:01:34.612Z,10.10
2022-12-25T01:04:01.831Z,10.10
2022-12-25T01:06:29.955Z,10.10
2022-12-25T01:09:15.778Z,10.10
2022-12-25T01:11:42.884Z,9.90
2022-12-25T01:14:10.139Z,10.00
2022-12-25T01:16:37.594Z,10.00
2022-12-25T01:19:04.770Z,10.10
2022-12-25T01:21:32.216Z,10.00
2022-12-25T01:23:59.329Z,10.10
2022-12-25T01:26:27.021Z,11.40
2022-12-25T01:28:54.171Z,10.10
2022-12-25T01:31:22.141Z,10.10
2022-12-25T01:33:49.531Z,10.10
2022-12-25T01:36:18.003Z,10.20
2022-12-25T01:38:45.813Z,10.20
2022-12-25T01:41:13.423Z,10.20
2022-12-25T01:44:00.856Z,10.20
2022-12-25T01:46:28.031Z,10.20
2022-12-25T01:48:56.967Z,10.20
2022-12-25T01:51:29.785Z,10.20
2022-12-25T01:53:58.250Z,10.20
2022-12-25T01:56:26.093Z,10.20
2022-12-25T01:58:54.843Z,10.20
2022-12-25T02:01:22.339Z,10.10
2022-12-25T02:03:49.578Z,10.20
2022-12-25T02:06:16.679Z,10.10
2022-12-25T02:08:43.788Z,10.10
2022-12-25T02:11:33.812Z,10.10
2022-12-25T02:14:01.065Z,10.40
2022-12-25T02:16:30.059Z,10.20
2022-12-25T02:19:02.207Z,10.10
2022-12-25T02:21:48.334Z,10.10
2022-12-25T02:24:30.888Z,10.00
2022-12-25T02:27:21.082Z,10.10
2022-12-25T02:29:53.514Z,10.10
2022-12-25T02:32:24.477Z,10.90
2022-12-25T02:35:03.101Z,10.10
2022-12-25T02:37:40.205Z,10.10
2022-12-25T02:40:10.142Z,10.10
2022-12-25T02:42:55.796Z,10.00
2022-12-25T02:46:01.678Z,10.00
2022-12-25T02:48:49.946Z,10.00
2022-12-25T02:51:37.123Z,9.90
2022-12-25T02:54:28.243Z,10.20
2022-12-25T02:57:15.419Z,9.90
2022-12-25T03:00:03.530Z,9.90
2022-12-25T03:02:49.646Z,9.90
2022-12-25T03:05:37.787Z,9.90
2022-12-25T03:08:07.745Z,10.00
2022-12-25T03:10:55.555Z,10.00
2022-12-25T03:13:24.508Z,10.00
2022-12-25T03:16:10.338Z,10.00
2022-12-25T03:18:37.824Z,10.00
2022-12-25T03:21:23.700Z,10.20
2022-12-25T03:24:16.450Z,10.00
2022-12-25T03:26:55.712Z,10.10
2022-12-25T03:29:42.341Z,10.10
2022-12-25T03:32:15.899Z,10.10
2022-12-25T03:35:20.605Z,10.00
2022-12-25T03:38:12.603Z,10.10
2022-12-25T03:41:24.626Z,10.10
2022-12-25T03:44:13.218Z,10.10
2022-12-25T03:47:02.959Z,10.10
2022-12-25T03:49:52.180Z,10.10
2022-12-25T03:52:38.190Z,10.00
2022-12-25T03:55:27.271Z,10.00
2022-12-25T03:58:12.961Z,10.00
2022-12-25T04:00:58.968Z,10.10
2022-12-25T04:03:44.768Z,10.10
2022-12-25T04:06:30.509Z,10.10
2022-12-25T04:09:16.145Z,10.00
2022-12-25T04:12:02.993Z,10.10
2022-12-25T04:14:48.905Z,10.10
2022-12-25T04:17:34.300Z,10.10
2022-12-25T04:20:36.884Z,8.60
2022-12-25T04:23:22.941Z,10.00
2022-12-25T04:26:08.828Z,10.00
2022-12-25T04:28:54.489Z,10.00
2022-12-25T04:31:40.223Z,10.00
2022-12-25T04:34:30.356Z,10.00
2022-12-25T04:36:57.445Z,10.00
2022-12-25T04:39:24.581Z,10.00
2022-12-25T04:41:51.710Z,10.10
2022-12-25T04:44:18.933Z,10.00
2022-12-25T04:46:46.025Z,10.10
2022-12-25T04:49:13.376Z,10.20
2022-12-25T04:51:40.493Z,10.10
2022-12-25T04:54:07.660Z,10.20
2022-12-25T04:56:38.538Z,10.20
2022-12-25T04:59:09.017Z,10.20
2022-12-25T05:01:36.195Z,10.20
2022-12-25T05:04:03.372Z,10.20
2022-12-25T05:06:30.503Z,11.60
2022-12-25T05:08:57.794Z,10.20
2022-12-25T05:11:24.919Z,10.20
2022-12-25T05:13:52.100Z,10.20
2022-12-25T05:16:20.103Z,10.20
2022-12-25T05:18:50.943Z,10.20
2022-12-25T05:21:18.271Z,10.20
2022-12-25T05:23:51.264Z,10.50
2022-12-25T05:26:20.551Z,10.20
2022-12-25T05:28:48.196Z,10.20
2022-12-25T05:31:15.400Z,10.20
2022-12-25T05:33:42.534Z,10.20
2022-12-25T05:36:10.537Z,10.20
2022-12-25T05:38:38.259Z,10.20
2022-12-25T05:41:05.464Z,10.20
2022-12-25T05:43:32.721Z,10.20
2022-12-25T05:46:03.883Z,10.10
2022-12-25T05:48:31.036Z,10.10
2022-12-25T05:50:58.158Z,10.10
2022-12-25T05:53:26.065Z,10.10
2022-12-25T05:55:53.667Z,10.10
2022-12-25T05:58:20.768Z,10.10
2022-12-25T06:00:48.054Z,10.10
2022-12-25T06:03:15.612Z,10.40
2022-12-25T06:05:42.767Z,10.10
2022-12-25T06:08:10.235Z,10.10
2022-12-25T06:10:37.599Z,10.10
2022-12-25T06:13:04.748Z,10.10
2022-12-25T06:15:31.973Z,8.70
2022-12-25T06:18:02.215Z,10.00
2022-12-25T06:20:29.340Z,10.10
2022-12-25T06:22:57.940Z,10.10
2022-12-25T06:25:25.080Z,10.10
2022-12-25T06:27:52.188Z,10.00
2022-12-25T06:30:19.355Z,9.20
2022-12-25T06:32:46.532Z,10.00
2022-12-25T06:35:13.681Z,10.00
2022-12-25T06:37:40.814Z,10.00
2022-12-25T06:40:08.311Z,10.00
2022-12-25T06:42:35.493Z,10.00
2022-12-25T06:45:02.600Z,10.00
2022-12-25T06:47:29.696Z,10.30
2022-12-25T06:49:56.794Z,10.00
2022-12-25T06:52:23.936Z,10.00
2022-12-25T06:54:52.133Z,10.00
2022-12-25T06:57:19.394Z,10.00
2022-12-25T06:59:49.906Z,10.00
2022-12-25T07:02:22.638Z,10.00
2022-12-25T07:04:50.063Z,10.10
2022-12-25T07:07:17.205Z,10.00
2022-12-25T07:09:44.373Z,10.00
2022-12-25T07:12:15.043Z,10.10
2022-12-25T07:14:42.289Z,10.00
2022-12-25T07:17:09.445Z,10.00
2022-12-25T07:19:42.738Z,10.00
2022-12-25T07:22:12.419Z,10.00
2022-12-25T07:24:39.560Z,10.00
2022-12-25T07:27:06.652Z,10.00
2022-12-25T07:29:34.068Z,10.10
2022-12-25T07:32:01.868Z,10.10
2022-12-25T07:34:29.033Z,10.10
2022-12-25T07:36:56.171Z,10.10
2022-12-25T07:39:24.040Z,10.10
2022-12-25T07:41:51.354Z,10.10
2022-12-25T07:44:18.606Z,10.10
2022-12-25T07:46:45.944Z,10.10
2022-12-25T07:49:13.213Z,10.10
2022-12-25T07:51:40.425Z,10.10
2022-12-25T07:54:07.741Z,10.20
2022-12-25T07:56:34.867Z,10.20
2022-12-25T07:59:03.369Z,10.10
2022-12-25T08:01:30.739Z,10.20
2022-12-25T08:03:59.312Z,10.20
2022-12-25T08:06:32.013Z,10.20
2022-12-25T08:09:06.554Z,10.10
2022-12-25T08:11:34.071Z,10.30
2022-12-25T08:14:01.518Z,10.20
2022-12-25T08:16:28.755Z,10.10
2022-12-25T08:18:55.896Z,10.10
2022-12-25T08:21:23.046Z,10.10
2022-12-25T08:23:50.147Z,10.20
2022-12-25T08:26:19.098Z,10.20
2022-12-25T08:28:46.892Z,10.20
2022-12-25T08:31:14.025Z,10.20
2022-12-25T08:33:41.191Z,10.20
2022-12-25T08:36:09.499Z,10.10
2022-12-25T08:38:36.832Z,10.10
2022-12-25T08:41:03.986Z,10.20
2022-12-25T08:43:31.245Z,10.20
2022-12-25T08:45:58.561Z,10.20
2022-12-25T08:48:25.848Z,10.20
2022-12-25T08:50:53.213Z,10.20
2022-12-25T08:53:20.607Z,10.20
2022-12-25T08:55:47.907Z,10.20
2022-12-25T08:58:16.428Z,10.20
2022-12-25T09:00:43.607Z,10.40
2022-12-25T09:03:10.792Z,10.20
2022-12-25T09:05:38.113Z,10.30
2022-12-25T09:08:06.306Z,10.30
2022-12-25T09:10:35.491Z,10.30
2022-12-25T09:13:02.630Z,10.30
2022-12-25T09:15:29.862Z,10.30
2022-12-25T09:17:57.007Z,10.30
2022-12-25T09:20:24.161Z,10.30
2022-12-25T09:22:51.371Z,10.40
2022-12-25T09:25:18.675Z,10.30
2022-12-25T09:27:45.753Z,10.40
2022-12-25T09:30:12.937Z,10.40
2022-12-25T09:32:40.452Z,10.40
2022-12-25T09:35:08.125Z,10.30
2022-12-25T09:37:35.283Z,10.40
2022-12-25T09:40:02.475Z,10.40
2022-12-25T09:42:34.589Z,10.40
2022-12-25T09:45:05.860Z,10.50
2022-12-25T09:47:35.604Z,10.50
2022-12-25T09:50:14.516Z,10.40
2022-12-25T09:52:44.443Z,10.00
2022-12-25T09:55:20.633Z,10.40
2022-12-25T09:57:52.705Z,9.50
2022-12-25T10:00:21.196Z,10.40
2022-12-25T10:03:07.206Z,10.40
2022-12-25T10:05:59.075Z,10.50
2022-12-25T10:08:54.491Z,10.90
2022-12-25T10:11:27.481Z,10.50
2022-12-25T10:13:57.967Z,10.50
2022-12-25T10:16:27.950Z,10.50
2022-12-25T10:18:57.901Z,10.50
2022-12-25T10:21:25.372Z,9.40
2022-12-25T10:23:58.590Z,10.50
2022-12-25T10:26:26.717Z,10.50
2022-12-25T10:28:58.020Z,10.60
2022-12-25T10:31:27.435Z,10.60
2022-12-25T10:33:55.047Z,10.60
2022-12-25T10:36:26.616Z,10.70
2022-12-25T10:38:54.041Z,10.60
2022-12-25T10:41:36.468Z,10.60
2022-12-25T10:44:13.349Z,10.70
2022-12-25T10:46:40.800Z,10.70
2022-12-25T10:49:14.262Z,10.70
2022-12-25T10:51:41.565Z,10.80
2022-12-25T10:54:19.930Z,10.70
2022-12-25T10:56:57.790Z,10.80
2022-12-25T10:59:27.740Z,10.80
2022-12-25T11:01:56.121Z,10.80
2022-12-25T11:04:28.675Z,10.80
2022-12-25T11:07:00.924Z,10.80
2022-12-25T11:09:28.193Z,10.90
2022-12-25T11:11:55.383Z,10.90
2022-12-25T11:14:23.234Z,10.90
2022-12-25T11:16:50.602Z,10.90
2022-12-25T11:19:28.744Z,11.00
2022-12-25T11:21:57.688Z,10.90
2022-12-25T11:24:29.462Z,11.00
2022-12-25T11:26:57.861Z,11.00
2022-12-25T11:29:24.968Z,11.10
2022-12-25T11:31:53.924Z,11.10
2022-12-25T11:34:21.034Z,11.10
2022-12-25T11:36:49.330Z,11.10
2022-12-25T11:39:16.433Z,11.10
2022-12-25T11:41:44.075Z,11.10
2022-12-25T11:44:27.386Z,11.10
2022-12-25T11:46:56.228Z,11.20
2022-12-25T11:49:23.531Z,11.20
2022-12-25T11:51:53.789Z,11.30
2022-12-25T11:54:23.698Z,11.30
2022-12-25T11:56:51.837Z,11.30
2022-12-25T11:59:18.960Z,11.40
2022-12-25T12:01:48.514Z,11.40
2022-12-25T12:04:27.474Z,10.70
2022-12-25T12:07:22.092Z,11.50
2022-12-25T12:09:54.289Z,11.50
2022-12-25T12:12:31.215Z,11.60
2022-12-25T12:15:12.358Z,11.60
2022-12-25T12:17:39.499Z,11.60
2022-12-25T12:20:14.415Z,11.70
2022-12-25T12:22:48.820Z,11.70
2022-12-25T12:25:17.568Z,11.70
2022-12-25T12:27:45.242Z,11.60
2022-12-25T12:30:29.361Z,11.60
2022-12-25T12:32:59.229Z,11.60
2022-12-25T12:35:27.987Z,11.60
2022-12-25T12:38:03.598Z,11.60
2022-12-25T12:40:36.596Z,11.50
2022-12-25T12:43:04.911Z,12.20
2022-12-25T12:45:34.957Z,11.50
2022-12-25T12:48:02.564Z,11.60
2022-12-25T12:50:31.892Z,11.60
2022-12-25T12:53:00.934Z,11.60
2022-12-25T12:55:35.150Z,11.60
2022-12-25T12:58:03.951Z,11.50
2022-12-25T13:00:42.594Z,11.50
2022-12-25T13:03:27.908Z,11.50
2022-12-25T13:06:00.820Z,11.40
2022-12-25T13:08:35.556Z,11.40
2022-12-25T13:11:11.899Z,11.40
2022-12-25T13:13:42.986Z,11.40
2022-12-25T13:16:16.846Z,11.40
2022-12-25T13:18:44.254Z,11.40
2022-12-25T13:21:17.656Z,11.40
2022-12-25T13:23:44.843Z,11.40
2022-12-25T13:26:13.972Z,10.90
2022-12-25T13:28:41.841Z,11.30
2022-12-25T13:31:22.572Z,11.40
2022-12-25T13:33:55.850Z,11.40
2022-12-25T13:36:23.011Z,11.30
2022-12-25T13:38:51.604Z,11.30
2022-12-25T13:41:38.176Z,11.30
2022-12-25T13:44:06.965Z,11.30
2022-12-25T13:46:34.057Z,11.30
2022-12-25T13:49:01.586Z,11.40
2022-12-25T13:51:28.784Z,11.40
2022-12-25T13:54:05.988Z,11.30
2022-12-25T13:56:34.272Z,11.30
2022-12-25T13:59:01.614Z,11.30
2022-12-25T14:01:29.183Z,11.30
2022-12-25T14:03:56.612Z,11.30
2022-12-25T14:06:27.010Z,11.30
2022-12-25T14:08:55.415Z,11.30
2022-12-25T14:11:24.308Z,11.30
2022-12-25T14:13:53.463Z,11.30
2022-12-25T14:16:21.159Z,11.20
2022-12-25T14:18:56.062Z,11.20
2022-12-25T14:21:49.299Z,11.20
2022-12-25T14:24:17.275Z,11.20
2022-12-25T14:26:44.505Z,11.20
2022-12-25T14:29:17.588Z,11.20
2022-12-25T14:31:47.038Z,11.10
2022-12-25T14:34:20.571Z,11.10
2022-12-25T14:36:48.181Z,11.10
2022-12-25T14:39:26.774Z,11.10
2022-12-25T14:41:54.205Z,11.10
2022-12-25T14:44:33.956Z,11.10
2022-12-25T14:47:20.199Z,11.10
2022-12-25T14:49:47.564Z,11.10
2022-12-25T14:52:29.036Z,11.10
2022-12-25T14:55:04.893Z,10.30
2022-12-25T14:57:39.243Z,11.10
2022-12-25T15:00:06.762Z,11.10
2022-12-25T15:02:39.897Z,11.10
2022-12-25T15:05:25.382Z,11.10
2022-12-25T15:08:01.265Z,11.10
2022-12-25T15:10:58.988Z,11.10
2022-12-25T15:13:17.907Z,11.10
2022-12-25T15:15:49.700Z,11.10
2022-12-25T15:18:17.317Z,12.00
2022-12-25T15:20:44.495Z,11.00
2022-12-25T15:23:20.046Z,11.00
2022-12-25T15:25:48.009Z,10.90
2022-12-25T15:28:15.275Z,10.90
2022-12-25T15:30:42.438Z,10.90
2022-12-25T15:33:17.357Z,10.90
2022-12-25T15:35:44.704Z,10.90
2022-12-25T15:38:12.859Z,10.90
2022-12-25T15:40:40.921Z,10.90
2022-12-25T15:43:14.439Z,10.80
2022-12-25T15:45:49.856Z,10.80
2022-12-25T15:48:17.098Z,10.80
2022-12-25T15:50:44.504Z,10.80
2022-12-25T15:53:12.836Z,10.70
2022-12-25T15:55:40.462Z,10.70
2022-12-25T15:58:11.146Z,10.60
2022-12-25T16:00:38.485Z,10.60
2022-12-25T16:03:05.795Z,11.50
2022-12-25T16:05:33.033Z,10.50
2022-12-25T16:08:00.120Z,10.50
2022-12-25T16:10:27.426Z,10.50
2022-12-25T16:12:54.513Z,10.50
2022-12-25T16:15:21.589Z,10.50
2022-12-25T16:17:48.801Z,10.40
2022-12-25T16:20:16.035Z,10.40
2022-12-25T16:22:43.212Z,10.40
2022-12-25T16:25:13.322Z,10.30
2022-12-25T16:27:40.530Z,10.40
2022-12-25T16:30:07.995Z,10.40
2022-12-25T16:32:35.356Z,10.30
2022-12-25T16:35:02.689Z,10.30
2022-12-25T16:37:29.829Z,10.30
2022-12-25T16:39:57.003Z,10.30
2022-12-25T16:42:24.106Z,10.20
2022-12-25T16:44:51.243Z,10.20
2022-12-25T16:47:18.419Z,10.20
2022-12-25T16:49:45.813Z,10.20
2022-12-25T16:52:12.927Z,10.20
2022-12-25T16:54:40.017Z,10.30
2022-12-25T16:57:07.186Z,10.20
2022-12-25T16:59:35.887Z,10.20
2022-12-25T17:02:03.236Z,10.20
2022-12-25T17:04:30.510Z,10.20
2022-12-25T17:06:57.629Z,10.20
2022-12-25T17:09:24.843Z,10.20
2022-12-25T17:11:52.035Z,10.20
2022-12-25T17:14:19.177Z,10.20
2022-12-25T17:16:46.404Z,10.20
2022-12-25T17:19:19.542Z,10.20
2022-12-25T17:21:46.690Z,10.30
2022-12-25T17:24:14.064Z,10.20
2022-12-25T17:26:41.650Z,10.20
2022-12-25T17:29:08.806Z,10.20
2022-12-25T17:31:36.035Z,10.20
2022-12-25T17:34:04.475Z,10.30
2022-12-25T17:36:31.866Z,10.30
2022-12-25T17:38:59.791Z,10.30
2022-12-25T17:41:27.168Z,10.30
2022-12-25T17:43:54.375Z,10.30
2022-12-25T17:46:22.722Z,10.30
2022-12-25T17:48:50.750Z,10.30
2022-12-25T17:51:19.500Z,10.30
2022-12-25T17:53:47.513Z,9.80
2022-12-25T17:56:15.002Z,10.40
2022-12-25T17:58:42.533Z,10.30
2022-12-25T18:01:14.331Z,11.70
2022-12-25T18:03:43.282Z,10.30
2022-12-25T18:06:13.374Z,10.30
2022-12-25T18:08:41.145Z,10.30
2022-12-25T18:11:10.021Z,10.30
2022-12-25T18:13:37.262Z,10.40
2022-12-25T18:16:05.843Z,10.30
2022-12-25T18:18:33.341Z,10.30
2022-12-25T18:21:00.459Z,10.20
2022-12-25T18:23:27.596Z,10.30
2022-12-25T18:25:54.845Z,10.20
2022-12-25T18:28:22.206Z,10.20
2022-12-25T18:30:49.375Z,10.20
2022-12-25T18:33:16.663Z,10.30
2022-12-25T18:35:44.862Z,10.20
2022-12-25T18:38:12.407Z,10.20
2022-12-25T18:40:41.051Z,10.20
2022-12-25T18:43:08.928Z,10.20
2022-12-25T18:45:36.402Z,10.20
2022-12-25T18:48:06.139Z,10.20
2022-12-25T18:50:34.408Z,10.20
2022-12-25T18:53:02.094Z,10.20
2022-12-25T18:55:29.291Z,10.10
2022-12-25T18:57:56.521Z,10.20
2022-12-25T19:00:23.810Z,10.10
2022-12-25T19:02:51.140Z,10.10
2022-12-25T19:05:18.323Z,10.10
2022-12-25T19:07:45.600Z,10.10
2022-12-25T19:10:13.333Z,10.10
2022-12-25T19:12:40.479Z,10.10
2022-12-25T19:15:07.847Z,10.10
2022-12-25T19:17:34.954Z,10.10
2022-12-25T19:20:02.227Z,10.00
2022-12-25T19:22:29.448Z,10.10
2022-12-25T19:24:56.511Z,10.10
2022-12-25T19:27:23.608Z,10.10
2022-12-25T19:29:50.752Z,10.00
2022-12-25T19:32:17.877Z,10.00
2022-12-25T19:34:45.050Z,10.00
2022-12-25T19:37:12.147Z,10.00
2022-12-25T19:39:41.456Z,10.00
2022-12-25T19:42:08.548Z,10.00
2022-12-25T19:44:35.668Z,10.00
2022-12-25T19:47:02.784Z,9.90
2022-12-25T19:49:30.042Z,9.90
2022-12-25T19:51:58.128Z,9.90
2022-12-25T19:54:25.261Z,9.90
2022-12-25T19:56:52.370Z,10.00
2022-12-25T19:59:19.528Z,9.90
2022-12-25T20:01:46.836Z,9.90
2022-12-25T20:04:14.914Z,9.90
2022-12-25T20:06:42.716Z,9.90
2022-12-25T20:09:15.008Z,9.80
2022-12-25T20:11:43.457Z,9.80
2022-12-25T20:14:12.299Z,9.90
2022-12-25T20:16:40.045Z,9.90
2022-12-25T20:19:07.340Z,9.80
2022-12-25T20:21:34.441Z,11.00
2022-12-25T20:24:01.759Z,9.90
2022-12-25T20:26:30.426Z,10.20
2022-12-25T20:28:58.126Z,10.60
2022-12-25T20:31:29.995Z,9.80
2022-12-25T20:33:58.345Z,9.90
2022-12-25T20:36:28.542Z,9.90
2022-12-25T20:38:59.859Z,9.80
2022-12-25T20:41:28.825Z,9.90
2022-12-25T20:43:56.908Z,9.80
2022-12-25T20:46:24.761Z,9.80
2022-12-25T20:48:52.976Z,9.80
2022-12-25T20:51:21.904Z,9.80
2022-12-25T20:53:49.417Z,9.80
2022-12-25T20:56:17.864Z,9.20
2022-12-25T20:58:45.067Z,9.70
2022-12-25T21:01:14.248Z,9.70
2022-12-25T21:03:41.965Z,9.70
2022-12-25T21:06:09.373Z,9.60
2022-12-25T21:08:36.955Z,9.60
2022-12-25T21:11:04.192Z,9.60
2022-12-25T21:13:33.049Z,9.60
2022-12-25T21:16:00.434Z,9.60
2022-12-25T21:18:28.291Z,9.60
2022-12-25T21:20:56.985Z,9.50
2022-12-25T21:23:26.689Z,9.50
2022-12-25T21:25:54.765Z,9.60
2022-12-25T21:28:22.564Z,9.60
2022-12-25T21:30:49.797Z,9.70
2022-12-25T21:33:35.501Z,9.60
2022-12-25T21:36:07.531Z,9.60
2022-12-25T21:38:34.718Z,9.60
2022-12-25T21:41:05.430Z,9.70
2022-12-25T21:43:33.185Z,9.70
2022-12-25T21:46:18.622Z,9.70
2022-12-25T21:48:46.049Z,10.20
2022-12-25T21:51:34.015Z,9.60
2022-12-25T21:54:01.522Z,9.60
2022-12-25T21:56:33.778Z,9.60
2022-12-25T21:59:04.583Z,9.60
2022-12-25T22:01:32.151Z,9.60
2022-12-25T22:04:06.506Z,9.90
2022-12-25T22:06:52.654Z,9.70
2022-12-25T22:09:20.227Z,9.70
2022-12-25T22:12:06.674Z,9.70
2022-12-25T22:14:57.602Z,9.60
2022-12-25T22:17:44.504Z,9.60
2022-12-25T22:20:13.852Z,9.50
2022-12-25T22:22:40.967Z,9.40
2022-12-25T22:25:09.145Z,9.50
2022-12-25T22:27:38.024Z,9.50
2022-12-25T22:30:06.452Z,9.60
2022-12-25T22:32:33.628Z,9.40
2022-12-25T22:35:00.875Z,9.40
2022-12-25T22:37:28.021Z,9.50
2022-12-25T22:39:55.110Z,9.40
2022-12-25T22:42:22.375Z,9.40
2022-12-25T22:44:49.572Z,9.40
2022-12-25T22:47:17.176Z,9.40
2022-12-25T22:49:44.361Z,9.40
2022-12-25T22:52:11.573Z,9.40
2022-12-25T22:54:38.929Z,9.40
2022-12-25T22:57:06.218Z,9.60
2022-12-25T22:59:33.896Z,9.70
2022-12-25T23:02:01.835Z,9.50
2022-12-25T23:04:29.278Z,9.40
2022-12-25T23:06:56.501Z,9.40
2022-12-25T23:09:28.049Z,9.40
2022-12-25T23:11:56.450Z,9.50
2022-12-25T23:14:39.667Z,9.40
2022-12-25T23:17:28.362Z,9.40
2022-12-25T23:20:14.305Z,9.30
2022-12-25T23:23:02.826Z,9.40
2022-12-25T23:25:48.490Z,9.40
2022-12-25T23:28:35.655Z,9.30
2022-12-25T23:31:02.812Z,9.40
2022-12-25T23:33:29.939Z,9.40
2022-12-25T23:35:57.060Z,9.40
2022-12-25T23:38:24.212Z,9.40
2022-12-25T23:40:51.359Z,9.40
2022-12-25T23:43:18.439Z,9.40
2022-12-25T23:45:45.537Z,9.40
2022-12-25T23:48:12.769Z,9.40
2022-12-25T23:50:40.307Z,9.50
2022-12-25T23:53:07.384Z,9.40
2022-12-25T23:55:34.652Z,9.30
2022-12-25T23:58:01.752Z,9.30
